Time;durP1;ratioP1;P1;durP2;ratioP2;P2;SDS_P1;SDS_P2;PMS_P1;PMS_P2;Temp;Humidity;BMP_temperature;BMP_pressure;BME280_temperature;BME280_humidity;BME280_pressure;Samples;Min_cycle;Max_cycle;Signal;HPM_P1;HPM_P2
2022/10/01 00:01:58;;;;;;;0.70;0.70;;;;;;;20.80;90.61;100435.44;5095754;28;20198;-76
2022/10/01 00:04:25;;;;;;;1.20;0.80;;;;;;;20.86;89.27;100431.84;5059856;28;20205;-76
2022/10/01 00:06:52;;;;;;;0.70;0.70;;;;;;;20.87;90.68;100439.69;5096286;28;20202;-76
2022/10/01 00:09:20;;;;;;;0.60;0.60;;;;;;;20.89;90.28;100439.66;5100301;28;20644;-76
2022/10/01 00:11:47;;;;;;;0.70;0.70;;;;;;;20.75;89.98;100438.19;5100606;28;20604;-76
2022/10/01 00:14:14;;;;;;;0.60;0.60;;;;;;;20.80;91.25;100432.81;5102883;28;20650;-76
2022/10/01 00:16:41;;;;;;;1.20;0.77;;;;;;;20.85;87.59;100438.88;5040535;28;20263;-77
2022/10/01 00:19:12;;;;;;;0.60;0.60;;;;;;;20.85;88.38;100420.41;5095187;28;20254;-76
2022/10/01 00:21:38;;;;;;;0.70;0.70;;;;;;;20.85;87.69;100430.09;5097454;28;20210;-77
2022/10/01 00:24:05;;;;;;;0.60;0.60;;;;;;;20.98;85.53;100439.47;5098242;28;20201;-77
2022/10/01 00:26:36;;;;;;;0.70;0.70;;;;;;;21.00;87.41;100432.41;5094894;28;20213;-76
2022/10/01 00:29:05;;;;;;;0.70;0.70;;;;;;;20.89;88.36;100429.13;5098884;28;20198;-76
2022/10/01 00:31:33;;;;;;;0.85;0.75;;;;;;;20.83;89.21;100427.50;5095987;28;20194;-76
2022/10/01 00:34:02;;;;;;;1.05;0.80;;;;;;;20.81;89.39;100418.75;5100870;28;20217;-75
2022/10/01 00:36:29;;;;;;;1.75;0.90;;;;;;;20.72;91.16;100421.59;5098989;28;20205;-76
2022/10/01 00:38:59;;;;;;;1.05;1.05;;;;;;;20.69;90.92;100427.75;5097121;28;20193;-76
2022/10/01 00:41:26;;;;;;;0.70;0.70;;;;;;;20.61;92.62;100418.31;5100035;28;20616;-77
2022/10/01 00:43:58;;;;;;;0.70;0.70;;;;;;;20.63;93.47;100411.22;5100200;28;20590;-76
2022/10/01 00:46:29;;;;;;;0.63;0.63;;;;;;;20.67;91.70;100428.72;5101314;28;20208;-76
2022/10/01 00:49:00;;;;;;;0.70;0.70;;;;;;;20.69;91.69;100434.84;5100833;28;21102;-76
2022/10/01 00:51:32;;;;;;;0.77;0.77;;;;;;;20.76;89.50;100439.06;5102802;28;20562;-76
2022/10/01 00:54:07;;;;;;;0.60;0.60;;;;;;;20.71;91.17;100425.13;5095457;28;20738;-76
2022/10/01 00:56:34;;;;;;;0.65;0.65;;;;;;;20.66;90.25;100427.84;5096151;28;20221;-76
2022/10/01 00:59:02;;;;;;;0.70;0.70;;;;;;;20.64;91.87;100427.00;5101615;28;20200;-75
2022/10/01 01:01:29;;;;;;;0.70;0.70;;;;;;;20.50;92.67;100417.66;5099461;28;20664;-76
2022/10/01 01:03:57;;;;;;;0.60;0.60;;;;;;;20.49;93.46;100416.78;5096724;28;20201;-77
2022/10/01 01:06:24;;;;;;;0.70;0.70;;;;;;;20.39;93.80;100423.13;5094226;28;20205;-76
2022/10/01 01:08:54;;;;;;;0.70;0.70;;;;;;;20.36;95.21;100423.19;5100395;28;20209;-76
2022/10/01 01:11:31;;;;;;;0.77;0.77;;;;;;;20.41;95.37;100418.69;5097695;28;20206;-76
2022/10/01 01:14:06;;;;;;;0.60;0.60;;;;;;;20.40;95.11;100416.09;5094479;28;20212;-76
2022/10/01 01:16:38;;;;;;;0.70;0.70;;;;;;;20.31;96.00;100409.22;5100335;28;20224;-76
2022/10/01 01:19:17;;;;;;;0.70;0.70;;;;;;;20.27;96.61;100407.50;5097767;28;20193;-76
2022/10/01 01:21:47;;;;;;;0.70;0.70;;;;;;;20.16;97.38;100410.34;5097221;28;20622;-77
2022/10/01 01:24:40;;;;;;;0.70;0.70;;;;;;;20.14;97.99;100406.91;5096007;28;20288;-76
2022/10/01 01:27:25;;;;;;;0.80;0.80;;;;;;;19.93;99.49;100374.84;5097518;28;20225;-76
2022/10/01 01:29:59;;;;;;;0.70;0.70;;;;;;;19.95;100.00;100387.06;5056600;28;20588;-76
2022/10/01 01:32:30;;;;;;;0.60;0.60;;;;;;;19.96;100.00;100395.81;5095177;28;20229;-76
2022/10/01 01:35:01;;;;;;;0.70;0.70;;;;;;;19.71;95.56;100345.41;5098160;28;20285;-76
2022/10/01 01:37:33;;;;;;;0.70;0.70;;;;;;;20.26;93.22;100404.00;5098191;28;20202;-76
2022/10/01 01:40:03;;;;;;;0.70;0.70;;;;;;;20.36;92.21;100401.25;5100213;28;20620;-76
2022/10/01 01:42:36;;;;;;;0.68;0.68;;;;;;;20.45;91.82;100403.69;5100769;28;20205;-76
2022/10/01 01:45:08;;;;;;;0.70;0.70;;;;;;;20.43;92.13;100410.75;5101535;28;20217;-76
2022/10/01 01:47:37;;;;;;;0.70;0.70;;;;;;;20.09;94.16;100392.94;5094309;28;20230;-76
2022/10/01 01:50:05;;;;;;;0.70;0.70;;;;;;;20.07;95.58;100404.41;5099068;28;20202;-76
2022/10/01 01:52:33;;;;;;;0.70;0.70;;;;;;;20.17;96.63;100411.22;5100883;28;20201;-76
2022/10/01 01:55:01;;;;;;;0.80;0.80;;;;;;;20.10;96.64;100410.47;5048095;28;20225;-77
2022/10/01 01:57:28;;;;;;;0.80;0.80;;;;;;;20.01;96.87;100405.38;5096003;28;20660;-76
2022/10/01 01:59:55;;;;;;;0.80;0.80;;;;;;;20.02;97.65;100407.13;5093238;28;20198;-76
2022/10/01 02:02:27;;;;;;;0.80;0.80;;;;;;;20.21;95.89;100405.88;5095957;28;20300;-76
2022/10/01 02:04:59;;;;;;;0.80;0.80;;;;;;;20.01;97.55;100392.19;5098803;28;20204;-76
2022/10/01 02:07:46;;;;;;;0.70;0.70;;;;;;;20.07;96.19;100394.75;5095335;28;20578;-76
2022/10/01 02:10:25;;;;;;;0.80;0.80;;;;;;;20.10;97.99;100402.59;5100365;28;20197;-76
2022/10/01 02:13:11;;;;;;;0.60;0.60;;;;;;;20.01;99.98;100405.38;5096916;28;20197;-76
2022/10/01 02:15:48;;;;;;;0.98;0.82;;;;;;;19.81;100.00;100389.06;5095836;28;20701;-76
2022/10/01 02:18:28;;;;;;;0.80;0.80;;;;;;;19.69;100.00;100381.41;5096156;28;20198;-75
2022/10/01 02:21:02;;;;;;;0.70;0.70;;;;;;;19.58;100.00;100399.13;5048853;28;20899;-76
2022/10/01 02:23:34;;;;;;;0.70;0.70;;;;;;;19.52;100.00;100405.34;5102150;28;20189;-76
2022/10/01 02:26:06;;;;;;;0.70;0.70;;;;;;;19.51;100.00;100410.66;5093288;28;20202;-76
2022/10/01 02:28:37;;;;;;;0.73;0.73;;;;;;;19.46;100.00;100404.59;5112725;28;20582;-76
2022/10/01 02:31:04;;;;;;;0.70;0.70;;;;;;;19.23;100.00;100408.41;5113628;28;20197;-76
2022/10/01 02:33:35;;;;;;;0.73;0.70;;;;;;;19.27;100.00;100398.69;5072228;28;20237;-76
2022/10/01 02:36:06;;;;;;;0.60;0.60;;;;;;;19.13;100.00;100384.91;5092592;28;20685;-76
2022/10/01 02:38:36;;;;;;;0.75;0.75;;;;;;;19.11;100.00;100392.81;5092033;28;20208;-76
2022/10/01 02:41:08;;;;;;;0.70;0.70;;;;;;;19.08;100.00;100395.50;5096608;28;20194;-76
2022/10/01 02:43:38;;;;;;;0.70;0.70;;;;;;;18.97;100.00;100388.66;5048268;28;20292;-76
2022/10/01 02:46:14;;;;;;;0.65;0.65;;;;;;;18.97;100.00;100399.16;5093808;28;20205;-75
2022/10/01 02:48:43;;;;;;;0.70;0.70;;;;;;;18.91;100.00;100394.84;5096991;28;20213;-75
2022/10/01 02:51:24;;;;;;;0.73;0.73;;;;;;;18.91;100.00;100397.47;5099484;28;20675;-76
2022/10/01 02:53:57;;;;;;;0.70;0.70;;;;;;;18.61;100.00;100369.00;5095976;28;20245;-76
2022/10/01 02:59:10;;;;;;;1.88;0.93;;;;;;;18.56;100.00;100365.56;5097536;28;20657;-76
2022/10/01 03:01:37;;;;;;;0.70;0.70;;;;;;;18.72;100.00;100388.13;5093205;28;20193;-75
2022/10/01 03:04:05;;;;;;;0.73;0.73;;;;;;;18.81;100.00;100377.47;5043040;28;20664;-76
2022/10/01 03:06:35;;;;;;;0.93;0.82;;;;;;;18.89;100.00;100383.50;5041731;28;20209;-76
2022/10/01 03:09:02;;;;;;;0.70;0.70;;;;;;;18.65;100.00;100378.59;5094058;28;20280;-76
2022/10/01 03:11:29;;;;;;;0.75;0.75;;;;;;;18.64;100.00;100379.47;5061787;28;20205;-76
2022/10/01 03:13:57;;;;;;;0.70;0.70;;;;;;;18.48;100.00;100354.28;5094140;28;20244;-75
2022/10/01 03:16:23;;;;;;;0.70;0.70;;;;;;;18.56;100.00;100370.81;5095236;28;20232;-76
2022/10/01 03:18:50;;;;;;;0.70;0.70;;;;;;;18.67;100.00;100363.66;5096975;28;20220;-76
2022/10/01 03:21:18;;;;;;;0.60;0.60;;;;;;;18.81;100.00;100361.72;5096248;28;20627;-76
2022/10/01 03:23:45;;;;;;;0.80;0.80;;;;;;;18.74;100.00;100363.56;5093053;28;20194;-76
2022/10/01 03:26:12;;;;;;;0.80;0.80;;;;;;;18.71;100.00;100362.75;5096058;28;20267;-76
2022/10/01 03:28:39;;;;;;;0.80;0.80;;;;;;;18.51;100.00;100338.50;5094885;28;20193;-76
2022/10/01 03:31:07;;;;;;;0.80;0.80;;;;;;;18.52;100.00;100332.34;5094068;28;20964;-80
2022/10/01 03:33:34;;;;;;;0.80;0.80;;;;;;;18.59;100.00;100362.88;5094733;28;20241;-76
2022/10/01 03:36:02;;;;;;;0.50;0.50;;;;;;;18.65;100.00;100368.09;5094123;28;20454;-76
2022/10/01 03:38:30;;;;;;;0.70;0.70;;;;;;;18.87;100.00;100369.50;5094736;28;20301;-77
2022/10/01 03:40:57;;;;;;;0.70;0.70;;;;;;;18.77;100.00;100360.88;5097239;28;20264;-76
2022/10/01 03:43:25;;;;;;;0.70;0.70;;;;;;;18.82;100.00;100379.22;5099552;28;20201;-76
2022/10/01 03:45:52;;;;;;;0.70;0.70;;;;;;;18.71;100.00;100365.38;5095313;28;20636;-76
2022/10/01 03:48:19;;;;;;;0.70;0.70;;;;;;;18.59;100.00;100348.00;5065323;28;21015;-77
2022/10/01 03:50:53;;;;;;;0.70;0.70;;;;;;;18.69;100.00;100364.53;5097030;28;20247;-77
2022/10/01 03:53:20;;;;;;;0.70;0.70;;;;;;;18.57;100.00;100372.56;5089617;28;20293;-75
2022/10/01 03:55:48;;;;;;;0.70;0.70;;;;;;;18.62;100.00;100373.38;5098343;28;20229;-76
2022/10/01 03:58:15;;;;;;;0.70;0.70;;;;;;;18.49;100.00;100369.13;5096701;28;21074;-76
2022/10/01 04:00:43;;;;;;;0.70;0.70;;;;;;;18.20;100.00;100315.22;5039964;28;20213;-75
2022/10/01 04:03:10;;;;;;;0.68;0.68;;;;;;;18.40;100.00;100359.63;5092302;28;20602;-76
2022/10/01 04:05:37;;;;;;;0.60;0.60;;;;;;;18.31;100.00;100350.09;5094673;28;20262;-76
2022/10/01 04:08:03;;;;;;;0.70;0.70;;;;;;;18.34;100.00;100357.03;5093077;28;20209;-75
2022/10/01 04:10:30;;;;;;;0.70;0.70;;;;;;;18.38;100.00;100355.25;5096623;28;20201;-76
2022/10/01 04:12:58;;;;;;;0.70;0.70;;;;;;;18.44;100.00;100357.81;5099631;28;20198;-76
2022/10/01 04:15:25;;;;;;;1.75;1.70;;;;;;;18.59;100.00;100386.53;5092788;28;20198;-76
2022/10/01 04:17:52;;;;;;;0.70;0.70;;;;;;;18.63;100.00;100382.97;5095764;28;20209;-75
2022/10/01 04:20:19;;;;;;;0.70;0.70;;;;;;;18.71;100.00;100389.00;5038250;28;20209;-76
2022/10/01 04:22:46;;;;;;;0.80;0.80;;;;;;;18.74;100.00;100381.94;5096613;28;20202;-76
2022/10/01 04:25:13;;;;;;;0.80;0.70;;;;;;;18.67;100.00;100384.69;5090831;28;20665;-76
2022/10/01 04:27:41;;;;;;;0.75;0.75;;;;;;;18.81;100.00;100394.13;5094307;28;20190;-78
2022/10/01 04:30:10;;;;;;;1.00;0.90;;;;;;;18.91;100.00;100394.84;5091465;28;20210;-75
2022/10/01 04:32:38;;;;;;;0.75;0.75;;;;;;;18.93;100.00;100392.22;5095508;28;20319;-76
2022/10/01 04:35:06;;;;;;;0.73;0.73;;;;;;;18.90;100.00;100381.75;5037484;28;20309;-75
2022/10/01 04:37:33;;;;;;;1.55;0.90;;;;;;;18.94;100.00;100400.06;5097520;28;20279;-76
2022/10/01 04:39:59;;;;;;;0.95;0.82;;;;;;;18.78;100.00;100367.00;5091203;28;20196;-76
2022/10/01 04:42:26;;;;;;;0.70;0.70;;;;;;;18.89;100.00;100404.53;5097106;28;20255;-76
2022/10/01 04:44:53;;;;;;;0.70;0.70;;;;;;;18.87;100.00;100414.16;5093280;28;20300;-76
2022/10/01 04:47:21;;;;;;;1.10;0.70;;;;;;;18.75;100.00;100409.97;5095198;28;20266;-77
2022/10/01 04:49:48;;;;;;;0.70;0.70;;;;;;;18.35;100.00;100382.41;5095027;28;20198;-76
2022/10/01 04:52:15;;;;;;;0.70;0.70;;;;;;;18.46;100.00;100409.41;5093647;28;20202;-76
2022/10/01 04:54:41;;;;;;;1.00;1.00;;;;;;;18.51;100.00;100406.78;5099003;28;20235;-75
2022/10/01 04:57:08;;;;;;;1.42;0.85;;;;;;;18.45;100.00;100415.56;5061677;28;20221;-76
2022/10/01 04:59:35;;;;;;;0.70;0.70;;;;;;;18.45;100.00;100412.94;5052565;28;20198;-74
2022/10/01 05:02:02;;;;;;;0.82;0.80;;;;;;;18.44;100.00;100408.59;5096640;28;20205;-75
2022/10/01 05:04:30;;;;;;;1.35;0.85;;;;;;;18.60;100.00;100414.53;5094571;28;20283;-75
2022/10/01 05:06:57;;;;;;;1.02;0.88;;;;;;;18.47;100.00;100403.28;5098736;28;20205;-75
2022/10/01 05:09:23;;;;;;;0.70;0.70;;;;;;;18.49;100.00;100421.63;5094565;28;20189;-78
2022/10/01 05:11:51;;;;;;;0.80;0.80;;;;;;;18.34;100.00;100418.31;5095348;28;20205;-75
2022/10/01 05:14:20;;;;;;;2.08;1.00;;;;;;;18.52;100.00;100416.38;5095524;28;20636;-75
2022/10/01 05:16:47;;;;;;;1.75;0.93;;;;;;;18.60;100.00;100414.53;5098177;28;20302;-75
2022/10/01 05:19:13;;;;;;;2.05;1.00;;;;;;;18.54;100.00;100381.34;5102382;28;20225;-76
2022/10/01 05:21:42;;;;;;;1.02;0.90;;;;;;;18.91;100.00;100415.88;5103519;28;20197;-76
2022/10/01 05:24:09;;;;;;;0.88;0.80;;;;;;;18.77;100.00;100391.53;5062631;28;20193;-78
2022/10/01 05:26:37;;;;;;;1.35;0.82;;;;;;;18.93;100.00;100418.50;5119050;28;20205;-76
2022/10/01 05:29:05;;;;;;;0.73;0.70;;;;;;;19.06;100.00;100420.94;5108973;28;20198;-82
2022/10/01 05:31:33;;;;;;;1.50;0.90;;;;;;;19.07;100.00;100396.38;5104068;28;20190;-79
2022/10/01 05:34:00;;;;;;;0.95;0.85;;;;;;;19.09;100.00;100383.19;5093688;28;20233;-77
2022/10/01 05:36:26;;;;;;;2.97;1.10;;;;;;;19.51;100.00;100429.06;5100169;28;20225;-74
2022/10/01 05:38:54;;;;;;;1.13;0.80;;;;;;;19.82;100.00;100430.28;5107644;28;20212;-75
2022/10/01 05:41:21;;;;;;;0.70;0.70;;;;;;;19.66;100.00;100397.22;5047321;28;20201;-76
2022/10/01 05:43:50;;;;;;;2.47;1.00;;;;;;;20.15;100.00;100432.34;5058048;28;20253;-69
2022/10/01 05:46:16;;;;;;;0.70;0.70;;;;;;;20.30;100.00;100451.41;5096077;28;20646;-71
2022/10/01 05:48:44;;;;;;;1.73;1.00;;;;;;;20.41;100.00;100457.31;5092338;28;20628;-74
2022/10/01 05:51:15;;;;;;;1.90;0.90;;;;;;;20.38;100.00;100444.22;5105410;28;20206;-74
2022/10/01 05:53:41;;;;;;;1.35;0.90;;;;;;;20.58;100.00;100463.16;5103649;28;20201;-74
2022/10/01 05:56:10;;;;;;;0.80;0.80;;;;;;;20.67;100.00;100462.97;5099413;28;20240;-75
2022/10/01 05:58:37;;;;;;;1.10;0.80;;;;;;;20.67;100.00;100447.16;5107157;28;20202;-75
2022/10/01 06:01:04;;;;;;;0.75;0.75;;;;;;;20.62;100.00;100473.59;5104687;28;20205;-75
2022/10/01 06:03:31;;;;;;;0.80;0.80;;;;;;;20.73;100.00;100482.16;5101126;28;20330;-76
2022/10/01 06:05:58;;;;;;;1.65;0.98;;;;;;;20.90;100.00;100473.06;5107848;28;20213;-76
2022/10/01 06:08:27;;;;;;;1.65;0.90;;;;;;;21.05;100.00;100467.44;5091080;28;20676;-76
2022/10/01 06:10:59;;;;;;;0.77;0.70;;;;;;;21.29;100.00;100460.81;5099795;28;20202;-75
2022/10/01 06:13:28;;;;;;;1.38;0.90;;;;;;;21.49;100.00;100456.78;5092482;28;20306;-75
2022/10/01 06:15:55;;;;;;;2.72;1.15;;;;;;;21.42;98.07;100442.00;5095169;28;20194;-79
2022/10/01 06:18:22;;;;;;;0.70;0.70;;;;;;;21.68;96.50;100460.75;5054737;28;20630;-74
2022/10/01 06:20:49;;;;;;;0.80;0.80;;;;;;;21.75;96.46;100450.91;5098278;28;20623;-75
2022/10/01 06:23:15;;;;;;;1.30;0.88;;;;;;;21.89;94.62;100453.19;5097578;28;20206;-76
2022/10/01 06:25:43;;;;;;;0.70;0.70;;;;;;;21.95;92.91;100461.84;5095474;28;20198;-76
2022/10/01 06:28:13;;;;;;;0.80;0.80;;;;;;;22.19;92.58;100449.75;5095086;28;20673;-76
2022/10/01 06:30:41;;;;;;;1.95;1.05;;;;;;;22.43;89.25;100450.91;5097439;28;20238;-75
2022/10/01 06:33:10;;;;;;;0.70;0.70;;;;;;;22.44;92.66;100445.56;5108827;28;20233;-77
2022/10/01 06:35:42;;;;;;;0.88;0.85;;;;;;;22.74;91.83;100435.94;5091980;28;20201;-76
2022/10/01 06:38:09;;;;;;;2.30;1.00;;;;;;;22.71;90.25;100425.44;5105106;28;20785;-77
2022/10/01 06:40:36;;;;;;;1.23;1.13;;;;;;;22.83;88.37;100430.38;5055874;28;20210;-77
2022/10/01 06:43:04;;;;;;;0.70;0.70;;;;;;;22.94;88.83;100428.28;5104355;28;20245;-78
2022/10/01 06:45:31;;;;;;;2.47;1.13;;;;;;;22.99;90.79;100439.59;5099222;28;20286;-75
2022/10/01 06:48:01;;;;;;;0.70;0.70;;;;;;;22.89;91.81;100442.56;5098786;28;20292;-77
2022/10/01 06:50:29;;;;;;;0.73;0.73;;;;;;;22.90;92.37;100442.50;5096503;28;20206;-76
2022/10/01 06:52:56;;;;;;;1.15;0.85;;;;;;;23.20;90.83;100440.72;5100815;28;20202;-76
2022/10/01 06:55:27;;;;;;;0.70;0.70;;;;;;;23.45;87.94;100419.66;5098803;28;20204;-79
2022/10/01 06:57:57;;;;;;;0.90;0.90;;;;;;;23.51;87.90;100425.63;5099749;28;20294;-76
2022/10/01 07:00:24;;;;;;;1.58;0.98;;;;;;;23.63;85.64;100406.69;5099847;28;20637;-76
2022/10/01 07:02:51;;;;;;;0.75;0.75;;;;;;;24.18;82.54;100408.38;5098156;28;20210;-77
2022/10/01 07:05:20;;;;;;;0.60;0.60;;;;;;;24.54;76.44;100402.66;5100297;28;20220;-77
2022/10/01 07:07:47;;;;;;;0.60;0.60;;;;;;;24.95;73.18;100409.94;5100950;28;20210;-83
2022/10/01 07:10:14;;;;;;;2.13;1.02;;;;;;;25.32;72.53;100396.06;5109217;28;20690;-77
2022/10/01 07:12:40;;;;;;;0.70;0.70;;;;;;;25.18;75.67;100420.50;5051099;28;20224;-83
2022/10/01 07:15:08;;;;;;;0.60;0.60;;;;;;;25.16;75.77;100408.22;5098666;28;20208;-75
2022/10/01 07:17:43;;;;;;;1.55;0.90;;;;;;;25.12;75.68;100425.19;5103384;28;20221;-76
2022/10/01 07:20:10;;;;;;;1.60;0.93;;;;;;;25.39;73.71;100424.09;5094199;28;20236;-74
2022/10/01 07:22:38;;;;;;;0.63;0.63;;;;;;;25.51;74.97;100441.34;5091183;28;20202;-77
2022/10/01 07:25:06;;;;;;;0.82;0.82;;;;;;;25.70;75.29;100423.75;5094653;28;20221;-76
2022/10/01 07:27:33;;;;;;;0.82;0.80;;;;;;;25.77;76.29;100429.66;5052673;28;20244;-77
2022/10/01 07:29:59;;;;;;;0.73;0.73;;;;;;;25.81;74.32;100410.88;5104553;28;20639;-79
2022/10/01 07:32:26;;;;;;;1.48;1.17;;;;;;;25.79;73.71;100423.34;5107098;28;20468;-75
2022/10/01 07:34:53;;;;;;;0.80;0.80;;;;;;;26.03;74.83;100430.31;5103620;28;20193;-75
2022/10/01 07:37:21;;;;;;;0.60;0.60;;;;;;;26.02;72.92;100415.28;5087465;28;20677;-76
2022/10/01 07:39:50;;;;;;;0.85;0.68;;;;;;;26.11;71.40;100420.19;5095055;28;20213;-76
2022/10/01 07:42:17;;;;;;;0.73;0.73;;;;;;;25.71;71.72;100420.16;5041774;28;20210;-76
2022/10/01 07:44:43;;;;;;;0.85;0.70;;;;;;;25.83;71.70;100430.25;5091131;28;20209;-75
2022/10/01 07:47:11;;;;;;;0.70;0.70;;;;;;;26.17;71.14;100420.84;5104174;28;20205;-78
2022/10/01 07:49:38;;;;;;;2.38;1.05;;;;;;;26.26;68.90;100429.31;5104425;28;20206;-76
2022/10/01 07:52:05;;;;;;;0.60;0.60;;;;;;;26.26;69.32;100418.69;5099385;28;20236;-76
2022/10/01 07:54:32;;;;;;;1.13;0.95;;;;;;;26.59;69.86;100427.81;5091924;28;20666;-77
2022/10/01 07:57:00;;;;;;;2.17;0.95;;;;;;;26.65;66.17;100432.00;5097225;28;20221;-74
2022/10/01 07:59:27;;;;;;;1.55;0.98;;;;;;;26.52;68.08;100417.53;5056314;28;20193;-75
2022/10/01 08:01:54;;;;;;;0.80;0.80;;;;;;;26.59;67.42;100400.34;5093036;28;20205;-74
2022/10/01 08:07:07;;;;;;;0.73;0.73;;;;;;;27.15;62.49;100402.22;5102952;28;20960;-75
2022/10/01 08:09:35;;;;;;;0.75;0.75;;;;;;;26.94;65.56;100345.50;5101094;28;20206;-74
2022/10/01 08:12:03;;;;;;;1.63;0.85;;;;;;;27.38;64.03;100407.28;5100077;28;20201;-75
2022/10/01 08:14:30;;;;;;;0.60;0.60;;;;;;;27.34;62.50;100401.22;5102798;28;20202;-77
2022/10/01 08:16:57;;;;;;;0.60;0.60;;;;;;;26.94;62.23;100412.91;5053783;28;20775;-74
2022/10/01 08:19:25;;;;;;;1.02;0.88;;;;;;;27.09;62.12;100414.88;5048373;28;20197;-74
2022/10/01 08:21:51;;;;;;;0.65;0.65;;;;;;;27.10;62.49;100410.41;5100576;28;21619;-74
2022/10/01 08:24:18;;;;;;;1.17;0.88;;;;;;;27.30;62.10;100402.31;5100871;28;20201;-74
2022/10/01 08:26:45;;;;;;;3.15;1.30;;;;;;;27.49;62.33;100412.97;5105040;28;20205;-76
2022/10/01 08:29:14;;;;;;;1.30;0.90;;;;;;;27.46;60.63;100408.66;5103471;28;20281;-80
2022/10/01 08:31:41;;;;;;;1.33;0.90;;;;;;;27.49;61.39;100410.31;5102191;28;20214;-74
2022/10/01 08:34:07;;;;;;;1.67;1.55;;;;;;;27.44;61.28;100407.84;5097411;28;20608;-74
2022/10/01 08:36:36;;;;;;;1.85;0.93;;;;;;;27.15;59.48;100410.19;5104315;28;20579;-75
2022/10/01 08:39:03;;;;;;;0.90;0.65;;;;;;;26.61;60.78;100390.53;5102997;28;20206;-75
2022/10/01 08:41:44;;;;;;;0.70;0.70;;;;;;;26.81;63.06;100410.88;5102578;28;20204;-76
2022/10/01 08:44:20;;;;;;;1.08;0.77;;;;;;;27.01;62.45;100406.38;5107618;28;20197;-77
2022/10/01 08:46:50;;;;;;;1.17;0.80;;;;;;;27.30;61.43;100409.44;5074941;28;20212;-76
2022/10/01 08:49:21;;;;;;;2.95;1.25;;;;;;;27.52;59.86;100412.81;5113275;28;20205;-76
2022/10/01 08:51:54;;;;;;;0.70;0.70;;;;;;;27.77;59.96;100400.00;5051999;28;20204;-73
2022/10/01 08:54:32;;;;;;;0.63;0.60;;;;;;;27.71;58.17;100388.78;5094103;28;20712;-77
2022/10/01 08:57:01;;;;;;;0.70;0.70;;;;;;;27.90;57.58;100405.56;5106237;28;20221;-78
2022/10/01 08:59:38;;;;;;;0.70;0.70;;;;;;;28.06;61.64;100395.84;5106376;28;20194;-79
2022/10/01 09:02:19;;;;;;;2.65;1.10;;;;;;;28.25;58.06;100407.31;5108248;28;20189;-78
2022/10/01 09:04:46;;;;;;;0.70;0.70;;;;;;;28.63;59.13;100402.59;5096864;28;20210;-81
2022/10/01 09:07:28;;;;;;;0.60;0.60;;;;;;;28.94;54.85;100408.00;5093500;28;20217;-73
2022/10/01 09:10:03;;;;;;;0.80;0.80;;;;;;;28.66;54.68;100407.75;5099946;28;20213;-78
2022/10/01 09:12:40;;;;;;;0.60;0.60;;;;;;;28.99;56.25;100397.94;5098301;28;20212;-77
2022/10/01 09:15:21;;;;;;;0.93;0.93;;;;;;;28.43;52.97;100381.47;5063689;28;20205;-79
2022/10/01 09:18:03;;;;;;;0.60;0.60;;;;;;;28.70;52.70;100393.34;5097773;28;20234;-77
2022/10/01 09:20:36;;;;;;;0.60;0.60;;;;;;;29.04;52.09;100382.50;5093119;28;20206;-76
2022/10/01 09:23:17;;;;;;;0.70;0.70;;;;;;;29.36;51.18;100377.19;5099608;28;20284;-78
2022/10/01 09:25:49;;;;;;;0.70;0.70;;;;;;;29.25;51.95;100390.25;5096307;28;20198;-76
2022/10/01 09:28:19;;;;;;;0.50;0.50;;;;;;;29.23;49.92;100386.78;5101627;28;20232;-73
2022/10/01 09:30:54;;;;;;;1.65;0.90;;;;;;;29.65;50.50;100379.00;5097763;28;20202;-78
2022/10/01 09:33:22;;;;;;;0.70;0.70;;;;;;;30.21;49.75;100374.78;5100204;28;20712;-73
2022/10/01 09:35:55;;;;;;;0.80;0.80;;;;;;;30.56;49.68;100378.84;5110067;28;20197;-75
2022/10/01 09:38:28;;;;;;;1.98;0.88;;;;;;;30.39;48.62;100365.63;5101139;28;20214;-75
2022/10/01 09:40:56;;;;;;;0.70;0.70;;;;;;;30.36;48.03;100371.13;5107776;28;20831;-76
2022/10/01 09:43:26;;;;;;;0.60;0.60;;;;;;;30.22;47.80;100371.13;5103618;28;20224;-76
2022/10/01 09:45:54;;;;;;;1.65;0.95;;;;;;;29.93;48.38;100306.06;5094299;28;20673;-76
2022/10/01 09:48:31;;;;;;;0.70;0.70;;;;;;;30.81;47.88;100370.97;5102280;28;20202;-75
2022/10/01 09:51:04;;;;;;;1.17;0.80;;;;;;;31.16;47.67;100386.59;5092509;28;20205;-73
2022/10/01 09:53:36;;;;;;;1.65;0.85;;;;;;;31.00;47.02;100369.81;5091863;28;20565;-74
2022/10/01 09:56:10;;;;;;;0.60;0.60;;;;;;;31.03;46.36;100389.25;5099791;28;20210;-73
2022/10/01 09:58:40;;;;;;;1.00;0.80;;;;;;;31.05;47.10;100379.28;5093356;28;20233;-73
2022/10/01 10:01:20;;;;;;;0.90;0.90;;;;;;;30.90;47.04;100383.75;5042511;28;20226;-74
2022/10/01 10:03:55;;;;;;;3.50;1.13;;;;;;;30.81;47.01;100362.06;5092173;28;20193;-74
2022/10/01 10:06:26;;;;;;;0.68;0.68;;;;;;;30.91;47.15;100350.66;5092246;28;20582;-74
2022/10/01 10:08:54;;;;;;;1.48;0.90;;;;;;;31.16;46.87;100367.84;5092300;28;20212;-79
2022/10/01 10:11:22;;;;;;;0.52;0.52;;;;;;;30.87;48.22;100367.88;5093611;28;20239;-76
2022/10/01 10:13:51;;;;;;;0.60;0.60;;;;;;;30.39;49.08;100362.94;5103473;28;20202;-76
2022/10/01 10:16:25;;;;;;;0.60;0.60;;;;;;;30.59;49.81;100362.56;5092004;28;20208;-75
2022/10/01 10:18:55;;;;;;;0.63;0.63;;;;;;;30.42;50.07;100357.44;5091792;28;20309;-73
2022/10/01 10:21:24;;;;;;;0.60;0.60;;;;;;;30.37;50.28;100356.81;5094102;28;20205;-74
2022/10/01 10:23:53;;;;;;;0.60;0.60;;;;;;;30.15;50.47;100349.25;5091575;28;20587;-75
2022/10/01 10:26:21;;;;;;;0.70;0.70;;;;;;;30.41;50.91;100344.97;5104649;28;20216;-75
2022/10/01 10:28:48;;;;;;;0.60;0.60;;;;;;;30.71;49.63;100340.38;5092622;28;20214;-73
2022/10/01 10:31:19;;;;;;;0.70;0.70;;;;;;;31.07;48.95;100344.34;5099174;28;21029;-75
2022/10/01 10:33:53;;;;;;;0.80;0.80;;;;;;;31.07;48.31;100325.59;5099252;28;20678;-75
2022/10/01 10:36:22;;;;;;;0.73;0.73;;;;;;;30.97;47.75;100339.56;5091528;28;20568;-76
2022/10/01 10:38:52;;;;;;;0.75;0.75;;;;;;;30.72;48.61;100335.88;5093957;28;20225;-75
2022/10/01 10:41:25;;;;;;;0.70;0.70;;;;;;;29.94;48.53;100331.84;5096063;28;20258;-76
2022/10/01 10:43:55;;;;;;;0.88;0.88;;;;;;;29.74;49.62;100335.69;5096323;28;20204;-75
2022/10/01 10:46:30;;;;;;;0.77;0.77;;;;;;;29.50;49.59;100297.06;5111113;28;20262;-76
2022/10/01 10:49:04;;;;;;;0.70;0.70;;;;;;;29.81;49.13;100349.56;5102182;28;20205;-74
2022/10/01 10:51:50;;;;;;;0.60;0.60;;;;;;;29.78;49.30;100342.59;5099102;28;20229;-75
2022/10/01 10:54:22;;;;;;;0.57;0.57;;;;;;;29.75;49.00;100342.75;5028365;28;20240;-75
2022/10/01 10:56:53;;;;;;;0.68;0.68;;;;;;;29.66;49.78;100332.63;5010559;28;20204;-75
2022/10/01 10:59:20;;;;;;;0.60;0.60;;;;;;;29.29;50.98;100306.31;5009052;28;20251;-75
2022/10/01 11:01:49;;;;;;;0.63;0.63;;;;;;;29.50;51.58;100323.81;5021104;28;20680;-75
2022/10/01 11:04:27;;;;;;;0.80;0.80;;;;;;;29.61;51.80;100334.69;5028218;28;20196;-76
2022/10/01 11:06:56;;;;;;;0.60;0.60;;;;;;;29.56;51.46;100323.44;5012171;28;20215;-77
2022/10/01 11:09:27;;;;;;;1.02;0.77;;;;;;;29.55;52.28;100324.38;5015613;28;20196;-78
2022/10/01 11:12:05;;;;;;;2.20;1.13;;;;;;;29.34;52.71;100330.97;5028026;28;20203;-77
2022/10/01 11:14:46;;;;;;;1.38;0.90;;;;;;;28.83;53.13;100258.22;5027961;28;20200;-76
2022/10/01 11:17:29;;;;;;;0.60;0.60;;;;;;;29.24;54.09;100311.06;5026745;28;20192;-75
2022/10/01 11:20:16;;;;;;;0.70;0.70;;;;;;;29.10;53.21;100306.53;5028561;28;20221;-76
2022/10/01 11:22:56;;;;;;;0.52;0.52;;;;;;;28.94;52.43;100274.50;5020613;28;21031;-75
2022/10/01 11:25:43;;;;;;;0.85;0.85;;;;;;;29.02;53.68;100292.75;4974436;28;20208;-74
2022/10/01 11:28:26;;;;;;;0.70;0.70;;;;;;;29.17;52.60;100299.00;5010735;28;20232;-75
2022/10/01 11:31:01;;;;;;;0.65;0.65;;;;;;;29.23;52.58;100298.66;5027534;28;20650;-74
2022/10/01 11:33:38;;;;;;;0.60;0.60;;;;;;;29.19;52.87;100295.28;5055421;28;20221;-76
2022/10/01 11:36:13;;;;;;;0.70;0.70;;;;;;;29.04;53.01;100281.00;5090832;28;20194;-75
2022/10/01 11:38:50;;;;;;;0.70;0.70;;;;;;;28.99;53.15;100304.47;5102325;28;20229;-75
2022/10/01 11:41:26;;;;;;;0.70;0.70;;;;;;;28.94;53.88;100294.97;5095844;28;20202;-75